Time;durP1;ratioP1;P1;durP2;ratioP2;P2;SDS_P1;SDS_P2;PMS_P1;PMS_P2;Temp;Humidity;BMP_temperature;BMP_pressure;BME280_temperature;BME280_humidity;BME280_pressure;Samples;Min_cycle;Max_cycle;Signal;HPM_P1;HPM_P2
2023/04/05 00:03:57;;;;;;;7.45;5.15;;;;;;;;;;12788727;23;20016;-82
2023/04/05 00:08:58;;;;;;;6.35;5.10;;;;;;;;;;12789095;23;20113;-80
2023/04/05 00:14:00;;;;;;;5.80;4.97;;;;;;;;;;12786604;23;20040;-80
2023/04/05 00:19:01;;;;;;;7.07;4.78;;;;;;;;;;12804248;23;20017;-79
2023/04/05 00:24:01;;;;;;;6.18;4.90;;;;;;;;;;12802973;23;20040;-81
2023/04/05 00:29:02;;;;;;;7.28;5.50;;;;;;;;;;12796211;23;20083;-80
2023/04/05 00:34:07;;;;;;;6.78;5.22;;;;;;;;;;12805920;23;20013;-80
2023/04/05 00:39:08;;;;;;;6.55;5.30;;;;;;;;;;12831754;23;20333;-80
2023/04/05 00:44:08;;;;;;;6.95;5.80;;;;;;;;;;12829749;23;20013;-79
2023/04/05 00:49:09;;;;;;;8.13;5.57;;;;;;;;;;12821432;23;20025;-78
2023/04/05 00:54:10;;;;;;;6.78;5.72;;;;;;;;;;12796512;23;20701;-84
2023/04/05 00:59:12;;;;;;;6.27;5.43;;;;;;;;;;12791467;23;20013;-84
2023/04/05 01:04:20;;;;;;;7.82;5.50;;;;;;;;;;12791089;23;20071;-82
2023/04/05 01:09:30;;;;;;;6.80;5.00;;;;;;;;;;12803755;23;20029;-78
2023/04/05 01:14:30;;;;;;;7.05;5.13;;;;;;;;;;12790070;23;20020;-80
2023/04/05 01:19:33;;;;;;;6.25;5.18;;;;;;;;;;12822266;23;20019;-79
2023/04/05 01:24:45;;;;;;;8.23;5.78;;;;;;;;;;12829619;23;20382;-78
2023/04/05 01:29:45;;;;;;;7.68;5.72;;;;;;;;;;12814038;23;20017;-78
2023/04/05 01:34:46;;;;;;;10.50;6.03;;;;;;;;;;12809261;23;20063;-77
2023/04/05 01:39:49;;;;;;;6.73;6.10;;;;;;;;;;12821030;23;20237;-80
2023/04/05 01:44:50;;;;;;;8.20;6.25;;;;;;;;;;12839680;23;20016;-80
2023/04/05 01:49:51;;;;;;;9.07;6.18;;;;;;;;;;12800044;23;20450;-78
2023/04/05 01:54:52;;;;;;;9.23;6.50;;;;;;;;;;12787050;23;20041;-78
2023/04/05 01:59:52;;;;;;;9.57;6.95;;;;;;;;;;12757516;23;20390;-79
2023/04/05 02:04:59;;;;;;;9.93;7.00;;;;;;;;;;12779650;23;20013;-80
2023/04/05 02:09:59;;;;;;;7.85;6.60;;;;;;;;;;12780379;23;20610;-79
2023/04/05 02:15:02;;;;;;;11.15;7.10;;;;;;;;;;12779360;23;20017;-81
2023/04/05 02:20:05;;;;;;;8.35;6.53;;;;;;;;;;12754625;23;20100;-83
2023/04/05 02:25:08;;;;;;;8.38;6.32;;;;;;;;;;12785769;23;20569;-81
2023/04/05 02:30:13;;;;;;;32.53;14.93;;;;;;;;;;12816473;23;20032;-81
2023/04/05 02:35:16;;;;;;;;;;;;;;;;;;12850960;23;20001;-80
2023/04/05 02:40:16;;;;;;;9.73;6.47;;;;;;;;;;12849409;23;19923;-80
2023/04/05 02:45:18;;;;;;;8.93;6.50;;;;;;;;;;12823421;23;20066;-79
2023/04/05 02:50:20;;;;;;;;;;;;;;;;;;12769409;23;20075;-81
2023/04/05 02:55:21;;;;;;;8.25;6.40;;;;;;;;;;12778190;23;19959;-80
2023/04/05 03:00:23;;;;;;;9.07;6.40;;;;;;;;;;12777211;23;20637;-79
2023/04/05 03:05:26;;;;;;;8.33;6.20;;;;;;;;;;12753583;23;20027;-79
2023/04/05 03:10:34;;;;;;;9.98;7.20;;;;;;;;;;12781483;23;20056;-79
2023/04/05 03:15:43;;;;;;;8.98;6.60;;;;;;;;;;12778997;23;20013;-78
2023/04/05 03:20:49;;;;;;;8.80;6.60;;;;;;;;;;12825866;23;20013;-80
2023/04/05 03:25:56;;;;;;;7.30;6.20;;;;;;;;;;12811954;23;20585;-78
2023/04/05 03:31:00;;;;;;;7.03;5.65;;;;;;;;;;12789982;23;20029;-79
2023/04/05 03:36:04;;;;;;;8.98;6.18;;;;;;;;;;12783186;23;20312;-78
2023/04/05 03:41:08;;;;;;;8.10;6.20;;;;;;;;;;12782056;23;20684;-77
2023/04/05 03:46:10;;;;;;;8.40;6.22;;;;;;;;;;12779598;23;20088;-77
2023/04/05 03:51:11;;;;;;;8.90;6.65;;;;;;;;;;12782378;23;20025;-79
2023/04/05 03:56:11;;;;;;;9.38;6.15;;;;;;;;;;12768506;23;20640;-79
2023/04/05 04:01:19;;;;;;;11.23;8.02;;;;;;;;;;12778333;23;20013;-76
2023/04/05 04:06:20;;;;;;;9.55;7.80;;;;;;;;;;12777997;23;20241;-77
2023/04/05 04:11:23;;;;;;;10.00;7.00;;;;;;;;;;12779365;23;20025;-78
2023/04/05 04:16:23;;;;;;;9.70;6.90;;;;;;;;;;12779878;23;20013;-77
2023/04/05 04:21:34;;;;;;;7.40;5.95;;;;;;;;;;12756744;23;20353;-77
2023/04/05 04:26:53;;;;;;;11.18;6.63;;;;;;;;;;12781297;23;20005;-77
2023/04/05 04:32:25;;;;;;;9.02;6.75;;;;;;;;;;12725400;23;20076;-78
2023/04/05 04:37:36;;;;;;;9.93;6.80;;;;;;;;;;12759864;23;20024;-78
2023/04/05 04:43:18;;;;;;;12.00;6.63;;;;;;;;;;12769178;23;20083;-78
2023/04/05 04:48:36;;;;;;;9.98;6.10;;;;;;;;;;12794168;23;20474;-78
2023/04/05 04:53:55;;;;;;;8.73;5.32;;;;;;;;;;12779790;23;20021;-76
2023/04/05 04:58:56;;;;;;;9.00;5.95;;;;;;;;;;12778563;23;20425;-77
2023/04/05 05:04:01;;;;;;;10.07;7.03;;;;;;;;;;12777845;23;20092;-77
2023/04/05 05:09:16;;;;;;;13.52;7.45;;;;;;;;;;12780477;23;20060;-77
2023/04/05 05:14:25;;;;;;;13.48;8.38;;;;;;;;;;12779550;23;20025;-79
2023/04/05 05:19:27;;;;;;;12.43;7.55;;;;;;;;;;12778605;23;20013;-79
2023/04/05 05:24:29;;;;;;;11.95;6.60;;;;;;;;;;12781071;23;20013;-80
2023/04/05 05:29:30;;;;;;;9.25;6.18;;;;;;;;;;12777036;23;20727;-77
2023/04/05 05:34:31;;;;;;;12.30;6.53;;;;;;;;;;12780302;23;20021;-79
2023/04/05 05:39:33;;;;;;;12.10;6.70;;;;;;;;;;12789204;23;20091;-79
2023/04/05 05:44:35;;;;;;;19.73;6.90;;;;;;;;;;12785886;23;20455;-79
2023/04/05 05:49:36;;;;;;;15.55;6.85;;;;;;;;;;12779452;23;20083;-78
2023/04/05 05:54:37;;;;;;;9.85;6.32;;;;;;;;;;12777769;23;20009;-77
2023/04/05 05:59:38;;;;;;;8.60;5.63;;;;;;;;;;12774790;23;20116;-77
2023/04/05 06:04:39;;;;;;;7.00;5.47;;;;;;;;;;12777855;23;20263;-78
2023/04/05 06:09:40;;;;;;;10.60;6.28;;;;;;;;;;12823577;23;20008;-77
2023/04/05 06:14:40;;;;;;;8.77;6.20;;;;;;;;;;12843429;23;20021;-80
2023/04/05 06:19:40;;;;;;;9.10;6.17;;;;;;;;;;12805197;23;20023;-80
2023/04/05 06:24:45;;;;;;;14.02;6.10;;;;;;;;;;12782592;23;20812;-80
2023/04/05 06:29:45;;;;;;;13.95;7.30;;;;;;;;;;12778817;23;20139;-78
2023/04/05 06:34:47;;;;;;;12.32;6.97;;;;;;;;;;12777993;23;20044;-84
2023/04/05 06:39:48;;;;;;;12.48;6.80;;;;;;;;;;12784375;23;20021;-80
2023/04/05 06:44:48;;;;;;;15.20;6.53;;;;;;;;;;12795494;23;20013;-79
2023/04/05 06:49:49;;;;;;;11.13;7.40;;;;;;;;;;12843588;23;20001;-80
2023/04/05 06:54:50;;;;;;;9.13;5.55;;;;;;;;;;12852030;23;20248;-79
2023/04/05 06:59:51;;;;;;;11.20;5.70;;;;;;;;;;12850840;23;20017;-79
2023/04/05 07:04:52;;;;;;;9.93;5.40;;;;;;;;;;12785110;23;20005;-79
2023/04/05 07:09:53;;;;;;;8.25;5.55;;;;;;;;;;12784867;23;20013;-79
2023/04/05 07:14:55;;;;;;;9.77;5.30;;;;;;;;;;12801586;23;20013;-79
2023/04/05 07:19:57;;;;;;;8.30;4.40;;;;;;;;;;12811507;23;19997;-80
2023/04/05 07:24:59;;;;;;;6.10;4.10;;;;;;;;;;12804779;23;20017;-81
2023/04/05 07:30:01;;;;;;;5.73;3.87;;;;;;;;;;12785524;23;20025;-79
2023/04/05 07:35:03;;;;;;;6.47;3.45;;;;;;;;;;12786502;23;20021;-83
2023/04/05 07:40:04;;;;;;;7.13;4.22;;;;;;;;;;12793698;23;20072;-82
2023/04/05 07:45:05;;;;;;;4.97;3.38;;;;;;;;;;12798211;23;20097;-81
2023/04/05 07:50:08;;;;;;;4.85;3.03;;;;;;;;;;12815013;23;20024;-80
2023/04/05 07:55:09;;;;;;;7.30;3.40;;;;;;;;;;12801359;23;20024;-79
2023/04/05 08:00:12;;;;;;;6.20;3.47;;;;;;;;;;12792609;23;20113;-82
2023/04/05 08:05:22;;;;;;;5.93;3.70;;;;;;;;;;12785576;23;20020;-79
2023/04/05 08:10:23;;;;;;;4.03;3.30;;;;;;;;;;12784949;23;20047;-80
2023/04/05 08:15:26;;;;;;;4.93;3.95;;;;;;;;;;12790227;23;20361;-80
2023/04/05 08:20:28;;;;;;;4.05;3.08;;;;;;;;;;12795102;23;20028;-82
2023/04/05 08:25:34;;;;;;;5.18;3.83;;;;;;;;;;12819060;23;19997;-80
2023/04/05 08:30:46;;;;;;;4.70;3.40;;;;;;;;;;12846393;23;20024;-80
2023/04/05 08:35:46;;;;;;;4.38;2.92;;;;;;;;;;12849974;23;20009;-82
2023/04/05 08:40:47;;;;;;;4.57;3.78;;;;;;;;;;12846443;23;19997;-83
2023/04/05 08:45:51;;;;;;;4.38;3.50;;;;;;;;;;12817128;23;20028;-82
2023/04/05 08:50:52;;;;;;;4.55;3.40;;;;;;;;;;12840278;23;20012;-80
2023/04/05 08:55:56;;;;;;;5.38;3.70;;;;;;;;;;12843785;23;19997;-81
2023/04/05 09:01:00;;;;;;;5.13;3.30;;;;;;;;;;12855917;23;19994;-79
2023/04/05 09:06:02;;;;;;;6.03;3.67;;;;;;;;;;12854851;23;20005;-78
2023/04/05 09:11:05;;;;;;;5.82;3.92;;;;;;;;;;12810335;23;20032;-81
2023/04/05 09:16:06;;;;;;;4.32;3.33;;;;;;;;;;12803627;23;20144;-79
2023/04/05 09:21:10;;;;;;;6.63;4.47;;;;;;;;;;12792935;23;20465;-78
2023/04/05 09:26:17;;;;;;;4.47;3.08;;;;;;;;;;12787191;23;20012;-80
2023/04/05 09:31:30;;;;;;;7.60;3.42;;;;;;;;;;12788731;23;20024;-82
2023/04/05 09:36:31;;;;;;;;;;;;;;;;;;12783080;23;20010;-78
2023/04/05 09:41:33;;;;;;;4.93;3.58;;;;;;;;;;12781107;23;19912;-78
2023/04/05 09:46:37;;;;;;;4.63;4.03;;;;;;;;;;12783010;23;20012;-83
2023/04/05 09:51:38;;;;;;;5.83;4.20;;;;;;;;;;12762830;23;20107;-79
2023/04/05 09:56:53;;;;;;;4.40;4.00;;;;;;;;;;12788004;23;20047;-79
2023/04/05 10:01:53;;;;;;;5.53;4.00;;;;;;;;;;12794678;23;20379;-80
2023/04/05 10:06:54;;;;;;;3.85;3.53;;;;;;;;;;12790185;23;20013;-81
2023/04/05 10:11:57;;;;;;;5.07;3.63;;;;;;;;;;12790888;23;20028;-78
2023/04/05 10:17:21;;;;;;;4.93;3.83;;;;;;;;;;12799965;23;20017;-78
2023/04/05 10:22:31;;;;;;;5.05;3.60;;;;;;;;;;12786080;23;20031;-79
2023/04/05 10:27:38;;;;;;;5.78;4.28;;;;;;;;;;12781224;23;20013;-78
2023/04/05 10:32:55;;;;;;;5.15;4.35;;;;;;;;;;12783298;23;20024;-78
2023/04/05 10:37:55;;;;;;;6.20;4.07;;;;;;;;;;12797137;23;20017;-83
2023/04/05 10:42:59;;;;;;;4.90;3.87;;;;;;;;;;12790343;23;20016;-81
2023/04/05 10:48:16;;;;;;;3.50;3.20;;;;;;;;;;12783653;23;20013;-78
2023/04/05 10:53:17;;;;;;;5.47;3.60;;;;;;;;;;12808571;23;20017;-79
2023/04/05 10:58:18;;;;;;;5.75;3.72;;;;;;;;;;12850895;23;19997;-79
2023/04/05 11:03:37;;;;;;;4.50;3.70;;;;;;;;;;12846417;23;19997;-78
2023/04/05 11:08:40;;;;;;;4.05;3.47;;;;;;;;;;12810588;23;20035;-75
2023/04/05 11:13:47;;;;;;;4.53;3.95;;;;;;;;;;12833231;23;20032;-79
2023/04/05 11:18:51;;;;;;;5.47;3.67;;;;;;;;;;12811920;23;20009;-82
2023/04/05 11:24:17;;;;;;;5.13;3.80;;;;;;;;;;12787576;23;20044;-83
2023/04/05 11:29:19;;;;;;;7.07;4.30;;;;;;;;;;12794018;23;20016;-80
2023/04/05 11:34:23;;;;;;;4.75;4.22;;;;;;;;;;12765115;23;20095;-80
2023/04/05 11:39:26;;;;;;;5.75;4.57;;;;;;;;;;12797513;23;20004;-82
2023/04/05 11:44:39;;;;;;;4.68;3.70;;;;;;;;;;12792965;23;20013;-81
2023/04/05 11:49:39;;;;;;;4.10;3.70;;;;;;;;;;12797585;23;20186;-79
2023/04/05 11:54:44;;;;;;;4.68;3.95;;;;;;;;;;12822196;23;20037;-78
2023/04/05 11:59:48;;;;;;;5.65;4.00;;;;;;;;;;12841597;23;20009;-82
2023/04/05 12:04:56;;;;;;;6.30;4.60;;;;;;;;;;12820959;23;20098;-81
2023/04/05 12:09:56;;;;;;;5.88;3.75;;;;;;;;;;12799708;23;20024;-77
2023/04/05 12:14:59;;;;;;;4.80;3.80;;;;;;;;;;12781414;23;20008;-77
2023/04/05 12:20:05;;;;;;;4.28;3.55;;;;;;;;;;12781159;23;20024;-80
2023/04/05 12:25:10;;;;;;;4.53;3.92;;;;;;;;;;12785990;23;20013;-76
2023/04/05 12:30:15;;;;;;;6.68;4.20;;;;;;;;;;12785837;23;20021;-80
2023/04/05 12:35:18;;;;;;;4.00;3.60;;;;;;;;;;12782749;23;20324;-80
2023/04/05 12:40:20;;;;;;;;;;;;;;;;;;12784350;23;20544;-79
2023/04/05 12:45:23;;;;;;;4.30;3.53;;;;;;;;;;12785308;23;19991;-83
2023/04/05 12:50:26;;;;;;;3.90;3.50;;;;;;;;;;12787818;23;20021;-80
2023/04/05 12:55:27;;;;;;;4.68;3.88;;;;;;;;;;12795773;23;20015;-79
2023/04/05 13:00:28;;;;;;;4.45;3.85;;;;;;;;;;12791874;23;20059;-78
2023/04/05 13:05:29;;;;;;;5.03;4.13;;;;;;;;;;12780993;23;20764;-80
2023/04/05 13:10:29;;;;;;;4.40;3.78;;;;;;;;;;12788179;23;20020;-80
2023/04/05 13:15:31;;;;;;;4.93;3.90;;;;;;;;;;12826645;23;20012;-82
2023/04/05 13:20:33;;;;;;;5.57;4.10;;;;;;;;;;12842942;23;19997;-82
2023/04/05 13:25:34;;;;;;;6.55;4.57;;;;;;;;;;12852389;23;20028;-83
2023/04/05 13:30:36;;;;;;;7.10;4.40;;;;;;;;;;12831308;22;20347;-84
2023/04/05 13:35:36;;;;;;;6.93;4.70;;;;;;;;;;12802420;22;20015;-84
2023/04/05 13:40:37;;;;;;;5.72;4.28;;;;;;;;;;12871051;22;20036;-83
2023/04/05 13:45:44;;;;;;;6.05;4.10;;;;;;;;;;12861343;22;20016;-84
2023/04/05 13:50:48;;;;;;;5.53;4.35;;;;;;;;;;12758424;22;20016;-85
2023/04/05 13:55:50;;;;;;;4.88;3.72;;;;;;;;;;12828532;23;20017;-87
2023/04/05 14:00:55;;;;;;;5.93;4.20;;;;;;;;;;12812201;22;20021;-83
2023/04/05 14:05:56;;;;;;;5.32;3.60;;;;;;;;;;12804241;22;20048;-83
2023/04/05 14:16:30;;;;;;;4.35;3.95;;;;;;;;;;12794230;22;20285;-83
2023/04/05 14:32:19;;;;;;;;;;;;;;;;;;12785916;22;21680;-83
2023/04/05 14:37:26;;;;;;;4.97;3.67;;;;;;;;;;12830470;23;19912;-83
2023/04/05 14:42:27;;;;;;;5.60;3.60;;;;;;;;;;12824253;23;20009;-83
2023/04/05 14:47:30;;;;;;;4.38;3.58;;;;;;;;;;12823605;22;20025;-83
2023/04/05 14:52:40;;;;;;;5.57;3.95;;;;;;;;;;12828655;23;20422;-85
2023/04/05 14:57:40;;;;;;;4.32;3.45;;;;;;;;;;12801502;23;20017;-85
2023/04/05 15:02:42;;;;;;;5.03;3.53;;;;;;;;;;12830693;23;20069;-82
2023/04/05 15:07:42;;;;;;;7.78;3.92;;;;;;;;;;12833405;23;20020;-82
2023/04/05 15:12:47;;;;;;;5.85;4.03;;;;;;;;;;12817581;23;20017;-82
2023/04/05 15:17:50;;;;;;;4.18;3.58;;;;;;;;;;12840033;23;20057;-81
2023/04/05 15:22:51;;;;;;;4.53;3.50;;;;;;;;;;12853302;23;20009;-82
2023/04/05 15:28:03;;;;;;;3.95;3.22;;;;;;;;;;12854529;23;20012;-83
2023/04/05 15:33:05;;;;;;;7.93;3.47;;;;;;;;;;12837542;22;20053;-82
2023/04/05 15:38:10;;;;;;;6.45;3.58;;;;;;;;;;12850655;23;20081;-81
2023/04/05 15:43:14;;;;;;;3.75;3.45;;;;;;;;;;12851065;23;20061;-81
2023/04/05 15:48:15;;;;;;;4.80;3.88;;;;;;;;;;12853862;23;20037;-81
2023/04/05 15:53:15;;;;;;;4.20;3.22;;;;;;;;;;12837489;23;20013;-81
2023/04/05 15:58:15;;;;;;;4.97;3.85;;;;;;;;;;12816941;23;20017;-84
2023/04/05 16:03:16;;;;;;;4.47;3.23;;;;;;;;;;12822452;23;20001;-81
2023/04/05 16:08:18;;;;;;;4.75;3.70;;;;;;;;;;12853128;23;20291;-81
2023/04/05 16:13:19;;;;;;;5.47;3.60;;;;;;;;;;12852912;23;20005;-85
2023/04/05 16:18:24;;;;;;;5.82;3.85;;;;;;;;;;12850042;23;19993;-83
2023/04/05 16:23:26;;;;;;;5.10;4.00;;;;;;;;;;12852441;23;20013;-79
2023/04/05 16:28:26;;;;;;;5.35;3.70;;;;;;;;;;12851359;23;20004;-81
2023/04/05 16:33:26;;;;;;;4.03;3.40;;;;;;;;;;12852622;23;20004;-81
2023/04/05 16:38:27;;;;;;;4.90;3.42;;;;;;;;;;12852440;23;20016;-80
2023/04/05 16:43:34;;;;;;;5.25;4.03;;;;;;;;;;12816250;23;20439;-80
2023/04/05 16:48:35;;;;;;;6.03;3.58;;;;;;;;;;12824901;23;20051;-81
2023/04/05 16:53:35;;;;;;;5.35;4.00;;;;;;;;;;12839881;23;20036;-82
2023/04/05 16:58:36;;;;;;;6.50;3.83;;;;;;;;;;12780989;23;20020;-82
2023/04/05 17:03:36;;;;;;;3.50;3.13;;;;;;;;;;12784812;23;20020;-81
2023/04/05 17:08:36;;;;;;;4.32;3.65;;;;;;;;;;12785563;23;20013;-81
2023/04/05 17:13:38;;;;;;;5.65;3.38;;;;;;;;;;12785928;23;20021;-81
2023/04/05 17:18:39;;;;;;;4.25;3.58;;;;;;;;;;12784964;23;20012;-79
2023/04/05 17:23:40;;;;;;;4.15;3.45;;;;;;;;;;12834187;23;20001;-82
2023/04/05 17:28:41;;;;;;;5.35;4.40;;;;;;;;;;12853590;23;20031;-80
2023/04/05 17:33:43;;;;;;;5.35;4.65;;;;;;;;;;12851985;23;20031;-80
2023/04/05 17:38:46;;;;;;;7.47;4.80;;;;;;;;;;12810252;23;20013;-84
2023/04/05 17:43:48;;;;;;;7.97;4.60;;;;;;;;;;12813000;23;20067;-81
2023/04/05 17:48:48;;;;;;;9.40;5.20;;;;;;;;;;12804179;23;20024;-79
2023/04/05 17:53:50;;;;;;;6.85;4.68;;;;;;;;;;12772361;23;20017;-82
2023/04/05 17:58:51;;;;;;;6.95;4.95;;;;;;;;;;12803293;23;20017;-81
2023/04/05 18:03:52;;;;;;;8.25;5.75;;;;;;;;;;12805770;23;20025;-80
2023/04/05 18:08:55;;;;;;;6.90;4.80;;;;;;;;;;12844655;23;19997;-79
2023/04/05 18:13:56;;;;;;;6.20;5.03;;;;;;;;;;12841756;23;19996;-79
2023/04/05 18:18:58;;;;;;;7.03;5.00;;;;;;;;;;12842837;23;20001;-79
2023/04/05 18:24:00;;;;;;;;;;;;;;;;;;12835601;23;20029;-80
2023/04/05 18:29:07;;;;;;;7.13;4.63;;;;;;;;;;12818213;23;19919;-81
2023/04/05 18:34:07;;;;;;;7.80;5.07;;;;;;;;;;12786073;23;20047;-80
2023/04/05 18:39:08;;;;;;;9.07;6.95;;;;;;;;;;12785475;23;20011;-83
2023/04/05 18:44:09;;;;;;;8.85;6.03;;;;;;;;;;12785352;23;20144;-79
2023/04/05 18:49:09;;;;;;;8.35;6.18;;;;;;;;;;12787406;23;20009;-81
2023/04/05 18:54:15;;;;;;;8.85;7.50;;;;;;;;;;12790930;23;20024;-79
2023/04/05 18:59:16;;;;;;;9.57;6.65;;;;;;;;;;12804251;23;20498;-80
2023/04/05 19:04:16;;;;;;;7.72;6.20;;;;;;;;;;12787818;23;20113;-80
2023/04/05 19:09:19;;;;;;;13.23;7.25;;;;;;;;;;12792044;23;20050;-80
2023/04/05 19:14:20;;;;;;;9.55;7.22;;;;;;;;;;12785729;23;20464;-80
2023/04/05 19:19:21;;;;;;;9.98;7.65;;;;;;;;;;12781368;23;20084;-80
2023/04/05 19:24:21;;;;;;;12.70;8.18;;;;;;;;;;12780529;23;20112;-80
2023/04/05 19:29:23;;;;;;;9.80;6.85;;;;;;;;;;12789752;23;20096;-81
2023/04/05 19:34:24;;;;;;;12.05;8.70;;;;;;;;;;12778646;23;20025;-78
2023/04/05 19:39:26;;;;;;;12.55;7.70;;;;;;;;;;12797820;23;20045;-80
2023/04/05 19:44:54;;;;;;;11.90;7.32;;;;;;;;;;12807555;23;20013;-79
2023/04/05 19:49:59;;;;;;;10.35;7.18;;;;;;;;;;12778961;23;20022;-79
2023/04/05 19:55:00;;;;;;;8.63;6.38;;;;;;;;;;12784198;23;20067;-78
2023/04/05 20:00:04;;;;;;;8.65;6.10;;;;;;;;;;12789004;23;20085;-81
2023/04/05 20:05:14;;;;;;;9.23;7.40;;;;;;;;;;12781231;23;20031;-81
2023/04/05 20:10:15;;;;;;;9.88;7.20;;;;;;;;;;12755963;23;20806;-80
2023/04/05 20:15:32;;;;;;;11.50;7.90;;;;;;;;;;12779881;23;20055;-77
2023/04/05 20:20:33;;;;;;;10.00;7.32;;;;;;;;;;12780603;23;20514;-76
2023/04/05 20:25:45;;;;;;;9.85;6.45;;;;;;;;;;12780069;23;20017;-75
2023/04/05 20:30:45;;;;;;;10.02;6.63;;;;;;;;;;12797319;23;20039;-77
2023/04/05 20:35:46;;;;;;;9.38;6.57;;;;;;;;;;12804528;23;20063;-77
2023/04/05 20:40:47;;;;;;;9.68;6.10;;;;;;;;;;12782193;23;20125;-79
2023/04/05 20:45:51;;;;;;;7.20;5.32;;;;;;;;;;12780604;23;20036;-75
2023/04/05 20:50:53;;;;;;;8.48;6.03;;;;;;;;;;12782594;23;20032;-80
2023/04/05 20:55:57;;;;;;;8.05;5.88;;;;;;;;;;12781740;23;20024;-78
2023/04/05 21:01:01;;;;;;;9.75;6.15;;;;;;;;;;12782845;23;20021;-77
2023/04/05 21:06:07;;;;;;;10.18;6.25;;;;;;;;;;12789064;23;20016;-78
2023/04/05 21:11:10;;;;;;;7.10;6.00;;;;;;;;;;12788593;23;20021;-77
2023/04/05 21:16:11;;;;;;;8.43;6.25;;;;;;;;;;12780556;23;20016;-80
2023/04/05 21:21:13;;;;;;;8.07;5.90;;;;;;;;;;12772057;23;20102;-77
2023/04/05 21:26:13;;;;;;;8.95;6.20;;;;;;;;;;12780002;23;20084;-77
2023/04/05 21:31:14;;;;;;;9.80;7.00;;;;;;;;;;12754133;23;20074;-80
2023/04/05 21:36:14;;;;;;;10.30;7.18;;;;;;;;;;12780877;23;20024;-80
2023/04/05 21:41:15;;;;;;;9.68;6.57;;;;;;;;;;12828307;23;20017;-79
2023/04/05 21:46:15;;;;;;;9.23;6.97;;;;;;;;;;12844365;23;20017;-78
2023/04/05 21:51:19;;;;;;;10.33;6.80;;;;;;;;;;12837914;23;20036;-79
2023/04/05 21:56:21;;;;;;;8.23;6.40;;;;;;;;;;12779841;23;20040;-79
2023/04/05 22:01:21;;;;;;;8.25;6.72;;;;;;;;;;12756428;23;20603;-79
2023/04/05 22:06:22;;;;;;;9.70;7.35;;;;;;;;;;12783653;23;20041;-78
2023/04/05 22:11:25;;;;;;;13.13;8.25;;;;;;;;;;12785204;23;20686;-77
2023/04/05 22:16:31;;;;;;;8.18;6.97;;;;;;;;;;12778801;23;20100;-79
2023/04/05 22:21:32;;;;;;;9.27;7.63;;;;;;;;;;12779375;23;20124;-77
2023/04/05 22:26:33;;;;;;;9.98;7.47;;;;;;;;;;12779538;23;20565;-77
2023/04/05 22:31:34;;;;;;;13.48;7.65;;;;;;;;;;12778900;23;20020;-80
2023/04/05 22:36:34;;;;;;;13.25;8.18;;;;;;;;;;12778009;23;20092;-79
2023/04/05 22:41:35;;;;;;;11.38;6.45;;;;;;;;;;12778065;23;20032;-78
2023/04/05 22:46:37;;;;;;;7.88;5.80;;;;;;;;;;12781564;23;20019;-80
2023/04/05 22:51:37;;;;;;;9.13;6.30;;;;;;;;;;12792059;23;20048;-80
2023/04/05 22:56:38;;;;;;;8.77;5.97;;;;;;;;;;12815627;23;20017;-77
2023/04/05 23:01:38;;;;;;;8.18;5.80;;;;;;;;;;12809717;23;20021;-76
2023/04/05 23:06:39;;;;;;;6.57;5.07;;;;;;;;;;12780929;23;20079;-77
2023/04/05 23:11:39;;;;;;;8.90;5.50;;;;;;;;;;12777967;23;20025;-78
2023/04/05 23:16:40;;;;;;;10.10;5.60;;;;;;;;;;12778831;23;20060;-78
2023/04/05 23:21:40;;;;;;;7.95;6.20;;;;;;;;;;12779571;23;20339;-79
2023/04/05 23:26:44;;;;;;;7.35;5.53;;;;;;;;;;12781027;23;20064;-77
2023/04/05 23:31:47;;;;;;;7.63;5.60;;;;;;;;;;12785174;23;20024;-81
2023/04/05 23:36:48;;;;;;;8.77;6.03;;;;;;;;;;12791403;23;20039;-80
2023/04/05 23:41:49;;;;;;;6.75;5.38;;;;;;;;;;12810745;23;20013;-82
2023/04/05 23:46:50;;;;;;;10.80;6.03;;;;;;;;;;12785165;23;20009;-77
2023/04/05 23:51:50;;;;;;;8.82;6.50;;;;;;;;;;12786170;23;20021;-77
2023/04/05 23:56:51;;;;;;;8.35;6.20;;;;;;;;;;12799657;23;20400;-77
